sensor_id;sensor_type;location;lat;lon;timestamp;pressure;altitude;pressure_sealevel;temperature;humidity
7309;BME280;3695;53.330;9.876;2022-10-31T00:00:52;117090.75;;;12.71;64.34
7309;BME280;3695;53.330;9.876;2022-10-31T00:03:18;117210.47;;;13.00;63.88
7309;BME280;3695;53.330;9.876;2022-10-31T00:05:46;117119.59;;;12.85;64.10
7309;BME280;3695;53.330;9.876;2022-10-31T00:08:13;117115.84;;;12.76;64.30
7309;BME280;3695;53.330;9.876;2022-10-31T00:10:40;117111.97;;;12.74;64.30
7309;BME280;3695;53.330;9.876;2022-10-31T00:13:08;117145.78;;;12.83;64.07
7309;BME280;3695;53.330;9.876;2022-10-31T00:15:37;117180.84;;;12.87;63.95
7309;BME280;3695;53.330;9.876;2022-10-31T00:18:04;117147.56;;;12.82;64.07
7309;BME280;3695;53.330;9.876;2022-10-31T00:20:31;117205.13;;;12.84;64.02
7309;BME280;3695;53.330;9.876;2022-10-31T00:22:58;117150.56;;;12.77;64.13
7309;BME280;3695;53.330;9.876;2022-10-31T00:25:25;117118.78;;;12.86;63.98
7309;BME280;3695;53.330;9.876;2022-10-31T00:27:52;117108.28;;;12.73;64.15
7309;BME280;3695;53.330;9.876;2022-10-31T00:30:19;117130.44;;;12.68;64.17
7309;BME280;3695;53.330;9.876;2022-10-31T00:32:47;117103.41;;;12.53;64.37
7309;BME280;3695;53.330;9.876;2022-10-31T00:35:13;117099.88;;;12.54;64.30
7309;BME280;3695;53.330;9.876;2022-10-31T00:37:40;117137.81;;;12.60;64.16
7309;BME280;3695;53.330;9.876;2022-10-31T00:40:07;117010.19;;;12.33;64.57
7309;BME280;3695;53.330;9.876;2022-10-31T00:42:34;116942.03;;;12.26;64.64
7309;BME280;3695;53.330;9.876;2022-10-31T00:45:00;116991.50;;;12.29;64.50
7309;BME280;3695;53.330;9.876;2022-10-31T00:47:27;117084.56;;;12.39;64.25
7309;BME280;3695;53.330;9.876;2022-10-31T00:49:55;117215.59;;;12.64;63.80
7309;BME280;3695;53.330;9.876;2022-10-31T00:52:21;117118.13;;;12.38;64.27
7309;BME280;3695;53.330;9.876;2022-10-31T00:54:47;117122.38;;;12.60;64.03
7309;BME280;3695;53.330;9.876;2022-10-31T00:57:14;117035.72;;;12.34;64.43
7309;BME280;3695;53.330;9.876;2022-10-31T00:59:40;116968.66;;;12.20;64.70
7309;BME280;3695;53.330;9.876;2022-10-31T01:02:07;117004.00;;;12.27;64.55
7309;BME280;3695;53.330;9.876;2022-10-31T01:04:33;117000.16;;;12.25;64.58
7309;BME280;3695;53.330;9.876;2022-10-31T01:07:01;117048.72;;;12.36;64.38
7309;BME280;3695;53.330;9.876;2022-10-31T01:09:27;117075.00;;;12.27;64.44
7309;BME280;3695;53.330;9.876;2022-10-31T01:11:54;117038.03;;;12.22;64.48
7309;BME280;3695;53.330;9.876;2022-10-31T01:14:20;117064.44;;;12.30;64.30
7309;BME280;3695;53.330;9.876;2022-10-31T01:16:46;117126.78;;;12.34;64.19
7309;BME280;3695;53.330;9.876;2022-10-31T01:19:13;117117.44;;;12.32;64.23
7309;BME280;3695;53.330;9.876;2022-10-31T01:21:39;117139.97;;;12.38;64.12
7309;BME280;3695;53.330;9.876;2022-10-31T01:24:08;117157.66;;;12.42;64.13
7309;BME280;3695;53.330;9.876;2022-10-31T01:26:34;117214.59;;;12.54;63.89
7309;BME280;3695;53.330;9.876;2022-10-31T01:29:03;117166.81;;;12.42;64.07
7309;BME280;3695;53.330;9.876;2022-10-31T01:31:31;117317.78;;;12.81;63.43
7309;BME280;3695;53.330;9.876;2022-10-31T01:33:58;117244.50;;;12.61;63.65
7309;BME280;3695;53.330;9.876;2022-10-31T01:36:27;117272.00;;;12.63;63.52
7309;BME280;3695;53.330;9.876;2022-10-31T01:38:56;117321.69;;;12.68;63.41
7309;BME280;3695;53.330;9.876;2022-10-31T01:41:26;117309.63;;;12.66;63.33
7309;BME280;3695;53.330;9.876;2022-10-31T01:43:54;117256.19;;;12.52;63.48
7309;BME280;3695;53.330;9.876;2022-10-31T01:46:24;117276.28;;;12.52;63.36
7309;BME280;3695;53.330;9.876;2022-10-31T01:48:53;117264.31;;;12.43;63.46
7309;BME280;3695;53.330;9.876;2022-10-31T01:51:23;117274.28;;;12.43;63.41
7309;BME280;3695;53.330;9.876;2022-10-31T01:53:54;117299.53;;;12.49;63.29
7309;BME280;3695;53.330;9.876;2022-10-31T01:56:22;117290.03;;;12.45;63.31
7309;BME280;3695;53.330;9.876;2022-10-31T01:58:50;117281.06;;;12.46;63.34
7309;BME280;3695;53.330;9.876;2022-10-31T02:01:17;117209.50;;;12.33;63.52
7309;BME280;3695;53.330;9.876;2022-10-31T02:03:45;117249.72;;;12.43;63.34
7309;BME280;3695;53.330;9.876;2022-10-31T02:06:21;117229.28;;;12.39;63.37
7309;BME280;3695;53.330;9.876;2022-10-31T02:08:49;117210.88;;;12.29;63.50
7309;BME280;3695;53.330;9.876;2022-10-31T02:11:16;117394.13;;;12.64;62.86
7309;BME280;3695;53.330;9.876;2022-10-31T02:13:43;117242.44;;;12.35;63.25
7309;BME280;3695;53.330;9.876;2022-10-31T02:16:11;117206.16;;;12.20;63.41
7309;BME280;3695;53.330;9.876;2022-10-31T02:18:37;117376.09;;;12.57;62.71
7309;BME280;3695;53.330;9.876;2022-10-31T02:21:08;117407.38;;;12.52;62.65
7309;BME280;3695;53.330;9.876;2022-10-31T02:26:50;117325.81;;;12.24;62.93
7309;BME280;3695;53.330;9.876;2022-10-31T02:32:44;117537.16;;;12.65;62.11
7309;BME280;3695;53.330;9.876;2022-10-31T02:35:18;117631.91;;;12.73;61.82
7309;BME280;3695;53.330;9.876;2022-10-31T02:37:53;117547.47;;;12.51;62.02
7309;BME280;3695;53.330;9.876;2022-10-31T02:40:25;117597.09;;;12.63;61.79
7309;BME280;3695;53.330;9.876;2022-10-31T02:43:00;117655.00;;;12.68;61.60
7309;BME280;3695;53.330;9.876;2022-10-31T02:45:30;117735.53;;;12.78;61.31
7309;BME280;3695;53.330;9.876;2022-10-31T02:48:01;117704.19;;;12.68;61.34
7309;BME280;3695;53.330;9.876;2022-10-31T02:50:31;117810.66;;;12.82;61.01
7309;BME280;3695;53.330;9.876;2022-10-31T02:52:59;117805.97;;;12.81;61.01
7309;BME280;3695;53.330;9.876;2022-10-31T02:55:56;117797.97;;;12.82;60.96
7309;BME280;3695;53.330;9.876;2022-10-31T02:58:26;117771.66;;;12.76;61.06
7309;BME280;3695;53.330;9.876;2022-10-31T03:01:10;117840.22;;;12.93;60.78
7309;BME280;3695;53.330;9.876;2022-10-31T03:03:53;117917.88;;;13.02;60.60
7309;BME280;3695;53.330;9.876;2022-10-31T03:06:29;117877.28;;;12.98;60.63
7309;BME280;3695;53.330;9.876;2022-10-31T03:09:02;117818.88;;;12.82;60.75
7309;BME280;3695;53.330;9.876;2022-10-31T03:11:36;117844.97;;;12.87;60.58
7309;BME280;3695;53.330;9.876;2022-10-31T03:14:10;117943.09;;;13.00;60.28
7309;BME280;3695;53.330;9.876;2022-10-31T03:16:44;117944.34;;;12.87;60.35
7309;BME280;3695;53.330;9.876;2022-10-31T03:19:16;117859.88;;;12.75;60.43
7309;BME280;3695;53.330;9.876;2022-10-31T03:21:45;117995.06;;;12.92;59.97
7309;BME280;3695;53.330;9.876;2022-10-31T03:24:13;118163.56;;;12.99;59.67
7309;BME280;3695;53.330;9.876;2022-10-31T03:26:45;118155.41;;;12.92;59.61
7309;BME280;3695;53.330;9.876;2022-10-31T03:29:16;118106.63;;;12.81;59.62
7309;BME280;3695;53.330;9.876;2022-10-31T03:31:46;118154.47;;;12.77;59.49
7309;BME280;3695;53.330;9.876;2022-10-31T03:34:18;118183.75;;;12.78;59.28
7309;BME280;3695;53.330;9.876;2022-10-31T03:36:47;118380.34;;;12.98;58.84
7309;BME280;3695;53.330;9.876;2022-10-31T03:39:17;118328.59;;;12.85;58.83
7309;BME280;3695;53.330;9.876;2022-10-31T03:41:49;118404.38;;;12.93;58.55
7309;BME280;3695;53.330;9.876;2022-10-31T03:44:19;118556.31;;;13.06;58.21
7309;BME280;3695;53.330;9.876;2022-10-31T03:46:47;118560.22;;;13.01;58.13
7309;BME280;3695;53.330;9.876;2022-10-31T03:49:14;118576.84;;;13.02;57.97
7309;BME280;3695;53.330;9.876;2022-10-31T03:51:45;118594.41;;;13.04;57.79
7309;BME280;3695;53.330;9.876;2022-10-31T03:54:20;118599.09;;;12.98;57.73
7309;BME280;3695;53.330;9.876;2022-10-31T03:56:52;118597.13;;;12.97;57.63
7309;BME280;3695;53.330;9.876;2022-10-31T03:59:24;118676.22;;;12.96;57.43
7309;BME280;3695;53.330;9.876;2022-10-31T04:01:55;118719.41;;;12.98;57.23
7309;BME280;3695;53.330;9.876;2022-10-31T04:04:24;118633.03;;;12.86;57.22
7309;BME280;3695;53.330;9.876;2022-10-31T04:06:53;118737.94;;;12.93;56.95
7309;BME280;3695;53.330;9.876;2022-10-31T04:09:22;118831.50;;;12.98;56.68
7309;BME280;3695;53.330;9.876;2022-10-31T04:11:51;118846.91;;;12.90;56.62
7309;BME280;3695;53.330;9.876;2022-10-31T04:14:20;118927.03;;;12.97;56.34
7309;BME280;3695;53.330;9.876;2022-10-31T04:16:46;119036.47;;;13.04;56.11
7309;BME280;3695;53.330;9.876;2022-10-31T04:19:14;119013.91;;;12.92;56.05
7309;BME280;3695;53.330;9.876;2022-10-31T04:21:40;119087.38;;;12.96;55.84
7309;BME280;3695;53.330;9.876;2022-10-31T04:24:10;119145.44;;;13.01;55.65
7309;BME280;3695;53.330;9.876;2022-10-31T04:26:36;119181.91;;;12.94;55.54
7309;BME280;3695;53.330;9.876;2022-10-31T04:29:03;119200.69;;;12.98;55.37
7309;BME280;3695;53.330;9.876;2022-10-31T04:31:29;119312.25;;;13.13;55.12
7309;BME280;3695;53.330;9.876;2022-10-31T04:33:55;119337.97;;;13.08;55.06
7309;BME280;3695;53.330;9.876;2022-10-31T04:36:22;119277.72;;;13.01;55.06
7309;BME280;3695;53.330;9.876;2022-10-31T04:38:48;119295.66;;;12.99;54.98
7309;BME280;3695;53.330;9.876;2022-10-31T04:41:16;119411.94;;;13.15;54.75
7309;BME280;3695;53.330;9.876;2022-10-31T04:43:43;119421.59;;;13.19;54.67
7309;BME280;3695;53.330;9.876;2022-10-31T04:46:10;119333.81;;;13.05;54.73
7309;BME280;3695;53.330;9.876;2022-10-31T04:48:37;119303.97;;;12.93;54.75
7309;BME280;3695;53.330;9.876;2022-10-31T04:51:03;119363.69;;;12.90;54.65
7309;BME280;3695;53.330;9.876;2022-10-31T04:53:30;119522.78;;;13.06;54.42
7309;BME280;3695;53.330;9.876;2022-10-31T04:55:58;119597.41;;;13.05;54.33
7309;BME280;3695;53.330;9.876;2022-10-31T04:58:26;119704.69;;;13.15;54.15
7309;BME280;3695;53.330;9.876;2022-10-31T05:00:53;119744.50;;;13.13;54.11
7309;BME280;3695;53.330;9.876;2022-10-31T05:03:20;119834.94;;;13.26;54.01
7309;BME280;3695;53.330;9.876;2022-10-31T05:05:46;119829.97;;;13.23;53.98
7309;BME280;3695;53.330;9.876;2022-10-31T05:08:13;119860.06;;;13.23;53.96
7309;BME280;3695;53.330;9.876;2022-10-31T05:10:40;119750.50;;;13.11;53.98
7309;BME280;3695;53.330;9.876;2022-10-31T05:13:06;119870.56;;;13.20;53.90
7309;BME280;3695;53.330;9.876;2022-10-31T05:15:34;119792.84;;;13.07;53.90
7309;BME280;3695;53.330;9.876;2022-10-31T05:18:01;119841.78;;;13.11;53.81
7309;BME280;3695;53.330;9.876;2022-10-31T05:20:29;119880.69;;;13.03;53.79
7309;BME280;3695;53.330;9.876;2022-10-31T05:22:56;120079.34;;;13.08;53.68
7309;BME280;3695;53.330;9.876;2022-10-31T05:25:25;120205.16;;;13.25;53.58
7309;BME280;3695;53.330;9.876;2022-10-31T05:27:53;120226.53;;;13.16;53.56
7309;BME280;3695;53.330;9.876;2022-10-31T05:30:21;120244.47;;;13.26;53.50
7309;BME280;3695;53.330;9.876;2022-10-31T05:32:50;120264.38;;;13.25;53.48
7309;BME280;3695;53.330;9.876;2022-10-31T05:35:20;120272.56;;;13.25;53.47
7309;BME280;3695;53.330;9.876;2022-10-31T05:37:47;120243.94;;;13.22;53.45
7309;BME280;3695;53.330;9.876;2022-10-31T05:40:15;120306.38;;;13.31;53.42
7309;BME280;3695;53.330;9.876;2022-10-31T05:42:43;120310.63;;;13.23;53.42
7309;BME280;3695;53.330;9.876;2022-10-31T05:45:10;120264.59;;;13.15;53.42
7309;BME280;3695;53.330;9.876;2022-10-31T05:47:37;120311.63;;;13.29;53.37
7309;BME280;3695;53.330;9.876;2022-10-31T05:50:06;120270.78;;;13.31;53.36
7309;BME280;3695;53.330;9.876;2022-10-31T05:52:33;119831.25;;;13.20;53.47
7309;BME280;3695;53.330;9.876;2022-10-31T05:54:59;120473.09;;;13.35;53.30
7309;BME280;3695;53.330;9.876;2022-10-31T05:57:26;120382.22;;;13.37;53.31
7309;BME280;3695;53.330;9.876;2022-10-31T05:59:54;120482.53;;;13.37;53.30
7309;BME280;3695;53.330;9.876;2022-10-31T06:02:20;120409.59;;;13.37;53.30
7309;BME280;3695;53.330;9.876;2022-10-31T06:04:47;120336.47;;;13.31;53.36
7309;BME280;3695;53.330;9.876;2022-10-31T06:07:15;120436.00;;;13.37;53.32
7309;BME280;3695;53.330;9.876;2022-10-31T06:09:41;120349.69;;;13.28;53.35
7309;BME280;3695;53.330;9.876;2022-10-31T06:12:08;120378.31;;;13.18;53.37
7309;BME280;3695;53.330;9.876;2022-10-31T06:14:34;120488.28;;;13.33;53.32
7309;BME280;3695;53.330;9.876;2022-10-31T06:17:00;120472.59;;;13.32;53.32
7309;BME280;3695;53.330;9.876;2022-10-31T06:19:27;120473.09;;;13.23;53.31
7309;BME280;3695;53.330;9.876;2022-10-31T06:21:53;120534.03;;;13.39;53.27
7309;BME280;3695;53.330;9.876;2022-10-31T06:24:21;120519.34;;;13.39;53.27
7309;BME280;3695;53.330;9.876;2022-10-31T06:26:47;120600.47;;;13.44;53.25
7309;BME280;3695;53.330;9.876;2022-10-31T06:29:14;120661.94;;;13.46;53.24
7309;BME280;3695;53.330;9.876;2022-10-31T06:31:40;120365.38;;;13.29;53.30
7309;BME280;3695;53.330;9.876;2022-10-31T06:34:07;120523.09;;;13.34;53.27
7309;BME280;3695;53.330;9.876;2022-10-31T06:36:33;120615.66;;;13.47;53.24
7309;BME280;3695;53.330;9.876;2022-10-31T06:39:00;120557.19;;;13.41;53.27
7309;BME280;3695;53.330;9.876;2022-10-31T06:41:27;120371.59;;;13.11;53.35
7309;BME280;3695;53.330;9.876;2022-10-31T06:43:54;120384.78;;;13.19;53.32
7309;BME280;3695;53.330;9.876;2022-10-31T06:46:20;120473.09;;;13.23;53.29
7309;BME280;3695;53.330;9.876;2022-10-31T06:48:47;120486.28;;;13.20;53.28
7309;BME280;3695;53.330;9.876;2022-10-31T06:51:13;120475.84;;;13.18;53.27
7309;BME280;3695;53.330;9.876;2022-10-31T06:53:40;120187.09;;;13.03;53.33
7309;BME280;3695;53.330;9.876;2022-10-31T06:56:06;120509.66;;;13.13;53.24
7309;BME280;3695;53.330;9.876;2022-10-31T06:58:34;120634.34;;;13.39;53.17
7309;BME280;3695;53.330;9.876;2022-10-31T07:01:01;120510.41;;;13.06;53.21
7309;BME280;3695;53.330;9.876;2022-10-31T07:03:27;120601.50;;;13.28;53.15
7309;BME280;3695;53.330;9.876;2022-10-31T07:05:55;120766.50;;;13.32;53.09
7309;BME280;3695;53.330;9.876;2022-10-31T07:08:22;120847.41;;;13.47;53.07
7309;BME280;3695;53.330;9.876;2022-10-31T07:10:51;120836.19;;;13.34;53.08
7309;BME280;3695;53.330;9.876;2022-10-31T07:13:18;120790.38;;;13.28;53.08
7309;BME280;3695;53.330;9.876;2022-10-31T07:15:50;120869.56;;;13.48;53.04
7309;BME280;3695;53.330;9.876;2022-10-31T07:18:16;120837.69;;;13.49;53.06
7309;BME280;3695;53.330;9.876;2022-10-31T07:20:43;120946.47;;;13.50;53.05
7309;BME280;3695;53.330;9.876;2022-10-31T07:23:10;120777.69;;;13.34;53.10
7309;BME280;3695;53.330;9.876;2022-10-31T07:25:37;120699.75;;;13.20;53.14
7309;BME280;3695;53.330;9.876;2022-10-31T07:28:03;120677.41;;;13.29;53.14
7309;BME280;3695;53.330;9.876;2022-10-31T07:30:30;120637.56;;;13.19;53.14
7309;BME280;3695;53.330;9.876;2022-10-31T07:32:57;120859.09;;;13.40;53.08
7309;BME280;3695;53.330;9.876;2022-10-31T07:35:25;120615.88;;;13.15;53.14
7309;BME280;3695;53.330;9.876;2022-10-31T07:37:52;120771.44;;;13.23;53.11
7309;BME280;3695;53.330;9.876;2022-10-31T07:40:19;120848.38;;;13.42;53.07
7309;BME280;3695;53.330;9.876;2022-10-31T07:42:46;120564.63;;;13.09;53.16
7309;BME280;3695;53.330;9.876;2022-10-31T07:45:15;120779.94;;;13.31;53.09
7309;BME280;3695;53.330;9.876;2022-10-31T07:47:43;120992.31;;;13.57;53.03
7309;BME280;3695;53.330;9.876;2022-10-31T07:50:14;120877.28;;;13.45;53.05
7309;BME280;3695;53.330;9.876;2022-10-31T07:52:42;120979.63;;;13.57;53.05
7309;BME280;3695;53.330;9.876;2022-10-31T07:55:09;121045.69;;;13.75;53.02
7309;BME280;3695;53.330;9.876;2022-10-31T07:57:36;120837.69;;;13.49;53.08
7309;BME280;3695;53.330;9.876;2022-10-31T08:00:02;120782.41;;;13.29;53.13
7309;BME280;3695;53.330;9.876;2022-10-31T08:02:29;120806.56;;;13.32;53.13
7309;BME280;3695;53.330;9.876;2022-10-31T08:04:55;120842.66;;;13.40;53.08
7309;BME280;3695;53.330;9.876;2022-10-31T08:07:23;120794.88;;;13.33;53.09
7309;BME280;3695;53.330;9.876;2022-10-31T08:09:49;120912.34;;;13.42;53.06
7309;BME280;3695;53.330;9.876;2022-10-31T08:12:16;120975.13;;;13.52;53.03
7309;BME280;3695;53.330;9.876;2022-10-31T08:14:42;120966.16;;;13.53;53.04
7309;BME280;3695;53.330;9.876;2022-10-31T08:17:09;121186.81;;;13.62;53.00
7309;BME280;3695;53.330;9.876;2022-10-31T08:19:35;121142.00;;;13.67;53.01
7309;BME280;3695;53.330;9.876;2022-10-31T08:22:02;121208.06;;;13.74;53.01
7309;BME280;3695;53.330;9.876;2022-10-31T08:24:30;121156.78;;;13.73;53.01
7309;BME280;3695;53.330;9.876;2022-10-31T08:26:56;120994.31;;;13.58;53.08
7309;BME280;3695;53.330;9.876;2022-10-31T08:29:23;120969.72;;;13.74;53.08
7309;BME280;3695;53.330;9.876;2022-10-31T08:31:49;120995.88;;;13.72;53.09
7309;BME280;3695;53.330;9.876;2022-10-31T08:34:16;121076.88;;;13.93;53.06
7309;BME280;3695;53.330;9.876;2022-10-31T08:36:42;121020.03;;;13.75;53.12
7309;BME280;3695;53.330;9.876;2022-10-31T08:39:10;120947.81;;;13.80;53.15
7309;BME280;3695;53.330;9.876;2022-10-31T08:41:37;120904.97;;;13.92;53.15
7309;BME280;3695;53.330;9.876;2022-10-31T08:44:04;120895.00;;;13.98;53.15
7309;BME280;3695;53.330;9.876;2022-10-31T08:46:30;120749.78;;;13.86;53.21
7309;BME280;3695;53.330;9.876;2022-10-31T08:48:58;120694.75;;;13.91;53.21
7309;BME280;3695;53.330;9.876;2022-10-31T08:51:24;120709.88;;;14.05;53.21
7309;BME280;3695;53.330;9.876;2022-10-31T08:53:50;120593.00;;;14.11;53.23
7309;BME280;3695;53.330;9.876;2022-10-31T08:56:17;120416.59;;;14.11;53.28
7309;BME280;3695;53.330;9.876;2022-10-31T08:58:45;120187.41;;;13.88;53.38
7309;BME280;3695;53.330;9.876;2022-10-31T09:01:11;120183.63;;;14.11;53.36
7309;BME280;3695;53.330;9.876;2022-10-31T09:03:37;120018.00;;;13.91;53.49
7309;BME280;3695;53.330;9.876;2022-10-31T09:06:05;120237.28;;;14.27;53.40
7309;BME280;3695;53.330;9.876;2022-10-31T09:08:34;120216.44;;;14.40;53.41
7309;BME280;3695;53.330;9.876;2022-10-31T09:11:01;120636.19;;;14.42;53.46
7309;BME280;3695;53.330;9.876;2022-10-31T09:13:28;120138.44;;;14.38;53.56
7309;BME280;3695;53.330;9.876;2022-10-31T09:15:56;119806.28;;;14.35;53.67
7309;BME280;3695;53.330;9.876;2022-10-31T09:18:24;120103.25;;;14.41;53.71
7309;BME280;3695;53.330;9.876;2022-10-31T09:20:53;119715.47;;;14.39;53.83
7309;BME280;3695;53.330;9.876;2022-10-31T09:23:21;119996.09;;;14.40;53.92
7309;BME280;3695;53.330;9.876;2022-10-31T09:25:49;119881.50;;;14.37;54.00
7309;BME280;3695;53.330;9.876;2022-10-31T09:28:17;119777.75;;;14.40;54.09
7309;BME280;3695;53.330;9.876;2022-10-31T09:30:46;119620.28;;;14.38;54.27
7309;BME280;3695;53.330;9.876;2022-10-31T09:33:14;119518.66;;;14.37;54.45
7309;BME280;3695;53.330;9.876;2022-10-31T09:35:41;119438.19;;;14.36;54.60
7309;BME280;3695;53.330;9.876;2022-10-31T09:38:09;119333.34;;;14.44;54.75
7309;BME280;3695;53.330;9.876;2022-10-31T09:40:38;119250.16;;;14.51;54.90
7309;BME280;3695;53.330;9.876;2022-10-31T09:43:13;119076.44;;;14.43;55.20
7309;BME280;3695;53.330;9.876;2022-10-31T09:45:52;118853.41;;;14.36;55.50
7309;BME280;3695;53.330;9.876;2022-10-31T09:48:39;118531.81;;;14.28;55.88
7309;BME280;3695;53.330;9.876;2022-10-31T09:51:10;118222.03;;;14.04;56.36
7309;BME280;3695;53.330;9.876;2022-10-31T09:53:41;118188.25;;;14.19;56.50
7309;BME280;3695;53.330;9.876;2022-10-31T09:56:12;118126.31;;;14.28;56.69
7309;BME280;3695;53.330;9.876;2022-10-31T09:58:43;118044.84;;;14.34;56.85
7309;BME280;3695;53.330;9.876;2022-10-31T10:01:29;117940.03;;;14.44;57.05
7309;BME280;3695;53.330;9.876;2022-10-31T10:04:02;117842.78;;;14.40;57.40
7309;BME280;3695;53.330;9.876;2022-10-31T10:06:34;117743.88;;;14.46;57.70
7309;BME280;3695;53.330;9.876;2022-10-31T10:09:01;117600.00;;;14.25;58.17
7309;BME280;3695;53.330;9.876;2022-10-31T10:11:37;117271.50;;;14.01;58.80
7309;BME280;3695;53.330;9.876;2022-10-31T10:14:20;117075.81;;;14.06;59.18
7309;BME280;3695;53.330;9.876;2022-10-31T10:17:01;117076.13;;;14.09;59.34
7309;BME280;3695;53.330;9.876;2022-10-31T10:19:59;116941.16;;;13.82;59.94
7309;BME280;3695;53.330;9.876;2022-10-31T10:22:34;117142.44;;;14.24;59.57
7309;BME280;3695;53.330;9.876;2022-10-31T10:25:14;117047.41;;;14.23;59.79
7309;BME280;3695;53.330;9.876;2022-10-31T10:27:53;117064.09;;;14.34;59.79
7309;BME280;3695;53.330;9.876;2022-10-31T10:30:28;117031.22;;;14.34;59.96
7309;BME280;3695;53.330;9.876;2022-10-31T10:32:58;116951.56;;;14.41;60.06
7309;BME280;3695;53.330;9.876;2022-10-31T10:35:30;116806.91;;;14.37;60.34
7309;BME280;3695;53.330;9.876;2022-10-31T10:38:01;116651.63;;;14.36;60.61
7309;BME280;3695;53.330;9.876;2022-10-31T10:40:29;116548.91;;;14.41;60.82
7309;BME280;3695;53.330;9.876;2022-10-31T10:43:01;116414.72;;;14.41;61.16
7309;BME280;3695;53.330;9.876;2022-10-31T10:45:49;116187.94;;;14.37;61.67
7309;BME280;3695;53.330;9.876;2022-10-31T10:48:41;115939.53;;;14.25;62.26
7309;BME280;3695;53.330;9.876;2022-10-31T10:51:19;115874.94;;;14.38;62.43
7309;BME280;3695;53.330;9.876;2022-10-31T10:53:54;115732.91;;;14.31;62.92
7309;BME280;3695;53.330;9.876;2022-10-31T10:56:37;115669.78;;;14.41;63.13
7309;BME280;3695;53.330;9.876;2022-10-31T10:59:10;115525.03;;;14.34;63.68
7309;BME280;3695;53.330;9.876;2022-10-31T11:01:39;115510.41;;;14.45;63.81
7309;BME280;3695;53.330;9.876;2022-10-31T11:04:17;115488.56;;;14.59;63.98
7309;BME280;3695;53.330;9.876;2022-10-31T11:07:01;115387.84;;;14.55;64.44
7309;BME280;3695;53.330;9.876;2022-10-31T11:09:28;115305.47;;;14.52;64.79
7309;BME280;3695;53.330;9.876;2022-10-31T11:11:55;115236.78;;;14.62;65.00
7309;BME280;3695;53.330;9.876;2022-10-31T11:14:23;115060.56;;;14.61;65.62
7309;BME280;3695;53.330;9.876;2022-10-31T11:16:52;114817.47;;;14.57;66.36
7309;BME280;3695;53.330;9.876;2022-10-31T11:19:21;114538.00;;;14.39;67.55
7309;BME280;3695;53.330;9.876;2022-10-31T11:21:49;114450.84;;;14.16;68.24
7309;BME280;3695;53.330;9.876;2022-10-31T11:24:19;114554.41;;;14.54;67.97
7309;BME280;3695;53.330;9.876;2022-10-31T11:26:48;114476.56;;;14.65;68.36
7309;BME280;3695;53.330;9.876;2022-10-31T11:29:19;114386.50;;;14.70;68.87
7309;BME280;3695;53.330;9.876;2022-10-31T11:31:46;114310.75;;;14.70;69.36
7309;BME280;3695;53.330;9.876;2022-10-31T11:34:17;114228.44;;;14.67;69.96
7309;BME280;3695;53.330;9.876;2022-10-31T11:36:46;114204.19;;;14.75;70.33
7309;BME280;3695;53.330;9.876;2022-10-31T11:39:17;114207.09;;;14.96;70.34
7309;BME280;3695;53.330;9.876;2022-10-31T11:41:45;113993.34;;;14.94;71.34
7309;BME280;3695;53.330;9.876;2022-10-31T11:44:15;113806.25;;;14.76;72.45
7309;BME280;3695;53.330;9.876;2022-10-31T11:46:44;113644.16;;;14.44;73.74
7309;BME280;3695;53.330;9.876;2022-10-31T11:49:15;113650.28;;;14.79;73.50
7309;BME280;3695;53.330;9.876;2022-10-31T11:51:47;113572.00;;;15.06;73.74
7309;BME280;3695;53.330;9.876;2022-10-31T11:54:21;113249.94;;;14.89;75.29
7309;BME280;3695;53.330;9.876;2022-10-31T11:56:48;113076.06;;;15.03;76.18
7309;BME280;3695;53.330;9.876;2022-10-31T11:59:18;112784.28;;;15.15;77.27
7309;BME280;3695;53.330;9.876;2022-10-31T12:01:50;112519.38;;;15.12;78.98
7309;BME280;3695;53.330;9.876;2022-10-31T12:04:17;112314.97;;;15.14;80.45
7309;BME280;3695;53.330;9.876;2022-10-31T12:06:44;112094.94;;;15.14;82.06
7309;BME280;3695;53.330;9.876;2022-10-31T12:09:21;111812.75;;;15.09;83.69
7309;BME280;3695;53.330;9.876;2022-10-31T12:14:47;111368.34;;;15.18;86.15
7309;BME280;3695;53.330;9.876;2022-10-31T12:17:19;111257.94;;;15.29;87.33
7309;BME280;3695;53.330;9.876;2022-10-31T12:19:59;111037.94;;;15.17;89.80
7309;BME280;3695;53.330;9.876;2022-10-31T12:22:34;110953.91;;;15.48;90.33
7309;BME280;3695;53.330;9.876;2022-10-31T12:25:16;110848.88;;;15.65;90.92
7309;BME280;3695;53.330;9.876;2022-10-31T12:27:59;110738.41;;;15.51;92.73
7309;BME280;3695;53.330;9.876;2022-10-31T12:30:34;110590.59;;;15.39;94.94
7309;BME280;3695;53.330;9.876;2022-10-31T12:33:15;110670.78;;;15.56;93.65
7309;BME280;3695;53.330;9.876;2022-10-31T12:35:48;110631.53;;;15.60;94.06
7309;BME280;3695;53.330;9.876;2022-10-31T12:38:30;110477.31;;;15.46;96.27
7309;BME280;3695;53.330;9.876;2022-10-31T12:41:14;110438.69;;;15.77;95.73
7309;BME280;3695;53.330;9.876;2022-10-31T12:43:48;110265.22;;;15.71;98.16
7309;BME280;3695;53.330;9.876;2022-10-31T12:46:29;110143.72;;;15.72;99.73
7309;BME280;3695;53.330;9.876;2022-10-31T12:49:12;109984.50;;;15.89;100.00
7309;BME280;3695;53.330;9.876;2022-10-31T12:51:50;109823.72;;;15.90;100.00
7309;BME280;3695;53.330;9.876;2022-10-31T12:57:18;109575.34;;;15.87;100.00
7309;BME280;3695;53.330;9.876;2022-10-31T12:59:53;109442.63;;;15.97;100.00
7309;BME280;3695;53.330;9.876;2022-10-31T13:02:27;109283.47;;;15.76;100.00
7309;BME280;3695;53.330;9.876;2022-10-31T13:04:58;109264.94;;;16.13;100.00
7309;BME280;3695;53.330;9.876;2022-10-31T13:07:32;109064.88;;;16.13;100.00
7309;BME280;3695;53.330;9.876;2022-10-31T13:10:02;108930.69;;;16.10;100.00
7309;BME280;3695;53.330;9.876;2022-10-31T13:12:34;108782.34;;;16.19;100.00
7309;BME280;3695;53.330;9.876;2022-10-31T13:15:05;108571.84;;;16.27;100.00
7309;BME280;3695;53.330;9.876;2022-10-31T13:17:42;108381.13;;;16.42;100.00
7309;BME280;3695;53.330;9.876;2022-10-31T13:20:17;108289.47;;;16.48;100.00
7309;BME280;3695;53.330;9.876;2022-10-31T13:22:49;108100.22;;;16.49;100.00
7309;BME280;3695;53.330;9.876;2022-10-31T13:25:22;107916.50;;;16.33;100.00
7309;BME280;3695;53.330;9.876;2022-10-31T13:27:54;107785.13;;;16.30;100.00
7309;BME280;3695;53.330;9.876;2022-10-31T13:30:25;107646.84;;;16.36;100.00
7309;BME280;3695;53.330;9.876;2022-10-31T13:32:56;107611.75;;;16.43;100.00
7309;BME280;3695;53.330;9.876;2022-10-31T13:35:28;107500.53;;;16.38;100.00